Time;durP1;ratioP1;P1;durP2;ratioP2;P2;SDS_P1;SDS_P2;PMS_P1;PMS_P2;Temp;Humidity;BMP_temperature;BMP_pressure;BME280_temperature;BME280_humidity;BME280_pressure;Samples;Min_cycle;Max_cycle;Signal;HPM_P1;HPM_P2
2022/01/27 00:01:02;;;;;;;79.17;33.43;;;;;;;-4.19;100.00;101110.72;1772212;79;21047;-72
2022/01/27 00:03:43;;;;;;;73.67;33.07;;;;;;;-4.19;100.00;101113.23;1782391;79;21512;-72
2022/01/27 00:06:06;;;;;;;73.33;33.37;;;;;;;-4.19;100.00;101110.72;1772578;79;21125;-73
2022/01/27 00:08:36;;;;;;;78.10;32.97;;;;;;;-4.21;100.00;101113.19;1775838;79;21031;-73
2022/01/27 00:11:07;;;;;;;74.23;32.07;;;;;;;-4.23;100.00;101111.88;1768331;79;21508;-73
2022/01/27 00:13:32;;;;;;;74.17;32.10;;;;;;;-4.26;100.00;101111.82;1746341;79;21092;-73
2022/01/27 00:16:15;;;;;;;74.27;32.63;;;;;;;-4.28;100.00;101115.08;1768598;79;21024;-73
2022/01/27 00:18:44;;;;;;;76.57;32.37;;;;;;;-4.31;100.00;101109.98;1757531;79;21520;-73
2022/01/27 00:21:13;;;;;;;77.67;34.40;;;;;;;-4.31;100.00;101114.60;1775815;79;21522;-73
2022/01/27 00:23:41;;;;;;;76.00;33.27;;;;;;;-4.31;100.00;101114.60;1738708;81;21005;-73
2022/01/27 00:26:11;;;;;;;81.37;36.20;;;;;;;-4.29;100.00;101116.75;1760351;80;20988;-73
2022/01/27 00:28:40;;;;;;;79.53;34.70;;;;;;;-4.34;100.00;101118.31;1772115;79;21107;-73
2022/01/27 00:31:08;;;;;;;80.27;34.97;;;;;;;-4.33;100.00;101118.73;1757161;80;21050;-73
2022/01/27 00:33:36;;;;;;;81.27;34.33;;;;;;;-4.29;100.00;101124.30;1758154;80;21055;-73
2022/01/27 00:36:04;;;;;;;85.33;35.50;;;;;;;-4.33;100.00;101116.23;1783106;80;21535;-73
2022/01/27 00:38:32;;;;;;;84.93;35.23;;;;;;;-4.34;100.00;101117.05;1750490;80;21815;-73
2022/01/27 00:41:00;;;;;;;86.50;34.67;;;;;;;-4.34;100.00;101120.83;1767267;79;21043;-73
2022/01/27 00:43:27;;;;;;;81.63;34.27;;;;;;;-4.36;100.00;101111.52;1767908;80;20980;-72
2022/01/27 00:45:54;;;;;;;78.90;33.40;;;;;;;-4.37;100.00;101109.42;1766325;79;20984;-72
2022/01/27 00:48:21;;;;;;;72.30;31.50;;;;;;;-4.41;100.00;101103.86;1750213;80;20985;-73
2022/01/27 00:50:55;;;;;;;71.03;31.53;;;;;;;-4.44;100.00;101103.77;1764007;79;21063;-73
2022/01/27 00:55:48;;;;;;;75.83;33.43;;;;;;;-4.60;100.00;101100.40;1775440;79;21016;-73
2022/01/27 01:00:57;;;;;;;71.97;30.83;;;;;;;-4.59;100.00;101102.95;1776168;79;21055;-73
2022/01/27 01:03:27;;;;;;;67.23;30.40;;;;;;;-4.59;100.00;101099.61;1776448;79;20988;-73
2022/01/27 01:19:23;;;;;;;73.07;31.20;;;;;;;-4.67;100.00;101098.98;1772899;79;21016;-73
2022/01/27 01:29:22;;;;;;;72.70;32.30;;;;;;;-4.68;100.00;101103.56;1777559;79;21028;-73
2022/01/27 01:32:37;;;;;;;69.83;30.73;;;;;;;-4.83;100.00;101093.92;1768597;79;21060;-73
2022/01/27 01:34:51;;;;;;;67.23;29.70;;;;;;;-4.88;100.00;101104.27;1773728;80;21036;-74
2022/01/27 01:37:18;;;;;;;72.00;30.67;;;;;;;-4.93;100.00;101108.28;1769501;80;21059;-73
2022/01/27 01:39:47;;;;;;;70.93;30.37;;;;;;;-4.91;100.00;101105.83;1778466;79;21032;-73
2022/01/27 01:42:14;;;;;;;69.20;30.37;;;;;;;-4.94;100.00;101105.34;1775213;80;21051;-73
2022/01/27 01:44:43;;;;;;;73.90;31.97;;;;;;;-5.00;100.00;101104.33;1776035;80;21524;-74
2022/01/27 01:47:10;;;;;;;70.17;29.97;;;;;;;-4.99;100.00;101098.48;1764960;79;21048;-73
2022/01/27 01:49:37;;;;;;;69.07;30.97;;;;;;;-4.99;100.00;101108.52;1770872;79;21044;-74
2022/01/27 01:52:07;;;;;;;70.53;31.60;;;;;;;-4.96;100.00;101107.38;1774268;80;21517;-73
2022/01/27 01:54:34;;;;;;;65.30;29.97;;;;;;;-4.93;100.00;101112.05;1768135;80;20992;-73
2022/01/27 01:57:02;;;;;;;72.20;30.57;;;;;;;-4.88;100.00;101109.70;1762714;80;21055;-74
2022/01/27 01:59:29;;;;;;;70.70;30.83;;;;;;;-4.90;100.00;101115.08;1777295;80;20992;-73
2022/01/27 02:01:57;;;;;;;69.23;30.83;;;;;;;-4.97;100.00;101115.28;1782615;80;21059;-73
2022/01/27 02:04:24;;;;;;;73.00;31.07;;;;;;;-4.92;100.00;101117.95;1774820;80;21090;-74
2022/01/27 02:07:00;;;;;;;67.80;30.23;;;;;;;-4.87;100.00;101118.91;1777118;79;21020;-73
2022/01/27 02:09:36;;;;;;;71.33;30.10;;;;;;;-4.89;100.00;101113.84;1771015;80;21064;-73
2022/01/27 02:20:12;;;;;;;79.27;33.03;;;;;;;-4.99;100.00;101116.89;1762305;80;20995;-74
2022/01/27 02:22:40;;;;;;;73.40;33.13;;;;;;;-4.98;100.00;101116.52;1772641;79;21071;-74
2022/01/27 02:25:08;;;;;;;73.47;33.27;;;;;;;-4.98;100.00;101115.27;1770085;79;21472;-74
2022/01/27 02:27:36;;;;;;;70.93;32.17;;;;;;;-4.96;100.00;101113.23;1773634;80;21055;-74
2022/01/27 02:30:05;;;;;;;71.20;31.47;;;;;;;-4.94;100.00;101114.13;1778971;79;21071;-74
2022/01/27 02:32:32;;;;;;;71.53;32.13;;;;;;;-4.99;100.00;101114.39;1759025;79;21075;-75
2022/01/27 02:35:00;;;;;;;72.20;31.43;;;;;;;-4.97;100.00;101114.44;1779826;80;21052;-74
2022/01/27 02:37:27;;;;;;;71.00;31.90;;;;;;;-4.96;100.00;101119.52;1781157;79;21552;-74
2022/01/27 02:39:54;;;;;;;71.03;30.50;;;;;;;-4.96;100.00;101121.18;1780058;79;21032;-74
2022/01/27 02:42:36;;;;;;;73.17;31.70;;;;;;;-4.92;100.00;101121.30;1774265;80;21068;-74
2022/01/27 02:45:11;;;;;;;71.00;33.33;;;;;;;-4.87;100.00;101122.68;1765026;79;21468;-74
2022/01/27 02:47:38;;;;;;;79.80;34.17;;;;;;;-4.85;100.00;101128.19;1772996;79;21066;-74
2022/01/27 02:50:07;;;;;;;74.77;33.90;;;;;;;-4.88;100.00;101121.84;1739175;80;21012;-74
2022/01/27 02:52:35;;;;;;;74.70;33.53;;;;;;;-4.93;100.00;101127.53;1779002;79;21051;-74
2022/01/27 02:55:03;;;;;;;72.07;33.93;;;;;;;-4.97;100.00;101134.11;1778261;79;21126;-74
2022/01/27 02:57:30;;;;;;;72.03;32.30;;;;;;;-4.99;100.00;101132.37;1769517;79;21024;-74
2022/01/27 02:59:57;;;;;;;75.53;34.37;;;;;;;-5.06;100.00;101127.58;1789395;79;20980;-74
2022/01/27 03:02:25;;;;;;;70.67;32.20;;;;;;;-5.07;100.00;101128.37;1784503;79;21063;-75
2022/01/27 03:04:52;;;;;;;69.60;31.93;;;;;;;-5.10;100.00;101125.79;1772564;80;21449;-74
2022/01/27 03:07:19;;;;;;;74.63;34.10;;;;;;;-5.07;100.00;101139.67;1753697;80;21037;-75
2022/01/27 03:09:47;;;;;;;72.23;33.00;;;;;;;-5.06;100.00;101135.96;1767757;79;21049;-74
2022/01/27 03:12:16;;;;;;;72.07;32.80;;;;;;;-5.04;100.00;101140.62;1761156;80;21069;-74
2022/01/27 03:14:43;;;;;;;75.63;32.90;;;;;;;-5.04;100.00;101135.60;1772525;80;21047;-75
2022/01/27 03:17:11;;;;;;;74.80;32.70;;;;;;;-5.03;100.00;101137.70;1783970;80;21077;-75
2022/01/27 03:19:39;;;;;;;71.97;31.57;;;;;;;-5.04;100.00;101134.34;1785366;79;21646;-75
2022/01/27 03:22:08;;;;;;;71.70;31.67;;;;;;;-5.02;100.00;101131.05;1773338;79;21828;-75
2022/01/27 03:24:36;;;;;;;71.67;32.97;;;;;;;-4.98;100.00;101136.60;1776572;80;21079;-75
2022/01/27 03:27:15;;;;;;;69.63;31.07;;;;;;;-4.93;100.00;101143.85;1776331;80;21075;-75
2022/01/27 03:29:36;;;;;;;69.87;32.20;;;;;;;-4.96;100.00;101141.27;1776360;79;21449;-74
2022/01/27 03:32:04;;;;;;;73.97;32.50;;;;;;;-4.89;100.00;101142.72;1780365;79;21504;-75
2022/01/27 03:34:31;;;;;;;68.77;31.60;;;;;;;-4.88;100.00;101143.19;1779486;79;21055;-74
2022/01/27 03:36:59;;;;;;;68.73;31.70;;;;;;;-4.88;100.00;101141.09;1779984;79;21004;-75
2022/01/27 03:39:27;;;;;;;71.03;31.93;;;;;;;-4.85;100.00;101149.53;1779025;79;21063;-75
2022/01/27 03:41:56;;;;;;;73.87;32.83;;;;;;;-4.78;100.00;101145.56;1782926;79;21506;-75
2022/01/27 03:44:23;;;;;;;70.80;32.23;;;;;;;-4.77;100.00;101147.25;1757588;79;20995;-75
2022/01/27 03:46:53;;;;;;;71.90;31.60;;;;;;;-4.75;100.00;101143.53;1772271;79;21067;-75
2022/01/27 03:49:20;;;;;;;71.07;32.50;;;;;;;-4.85;100.00;101144.92;1769783;79;21011;-73
2022/01/27 03:51:47;;;;;;;71.50;31.93;;;;;;;-4.93;100.00;101151.38;1766750;80;20996;-73
2022/01/27 03:54:16;;;;;;;73.93;33.37;;;;;;;-4.90;100.00;101143.95;1771674;80;21063;-74
2022/01/27 03:56:43;;;;;;;72.23;33.17;;;;;;;-4.87;100.00;101151.15;1780907;79;21012;-74
2022/01/27 03:59:11;;;;;;;71.93;33.70;;;;;;;-4.78;100.00;101152.25;1784520;79;20988;-74
2022/01/27 04:01:39;;;;;;;71.40;33.20;;;;;;;-4.77;100.00;101151.43;1778845;80;21119;-74
2022/01/27 04:04:06;;;;;;;71.97;33.07;;;;;;;-4.81;100.00;101154.25;1780550;80;21067;-73
2022/01/27 04:06:36;;;;;;;74.93;32.30;;;;;;;-4.86;100.00;101149.52;1783153;79;20992;-73
2022/01/27 04:09:05;;;;;;;80.20;34.60;;;;;;;-4.94;100.00;101153.46;1771548;79;21060;-74
2022/01/27 04:11:32;;;;;;;72.70;33.37;;;;;;;-4.98;100.00;101151.67;1771809;79;21070;-74
2022/01/27 04:13:59;;;;;;;76.77;34.50;;;;;;;-5.02;100.00;101148.62;1765658;79;20997;-74
2022/01/27 04:16:27;;;;;;;78.23;35.90;;;;;;;-5.02;100.00;101145.70;1780219;79;21122;-74
2022/01/27 04:18:54;;;;;;;74.70;34.20;;;;;;;-5.09;100.00;101151.33;1785794;79;21090;-73
2022/01/27 04:21:21;;;;;;;75.40;34.07;;;;;;;-5.11;100.00;101148.80;1758788;80;21079;-74
2022/01/27 04:23:50;;;;;;;72.10;34.30;;;;;;;-5.13;100.00;101144.51;1759935;80;21011;-73
2022/01/27 04:26:22;;;;;;;76.83;34.90;;;;;;;-5.18;100.00;101154.42;1776410;79;21020;-74
2022/01/27 04:28:48;;;;;;;75.23;35.33;;;;;;;-5.28;100.00;101152.02;1778797;79;21027;-74
2022/01/27 04:31:15;;;;;;;75.97;35.90;;;;;;;-5.32;100.00;101156.50;1769954;79;21063;-74
2022/01/27 04:33:42;;;;;;;83.60;38.27;;;;;;;-5.27;100.00;101159.14;1769805;80;21051;-74
2022/01/27 04:36:18;;;;;;;78.77;37.77;;;;;;;-5.28;100.00;101156.20;1765864;80;21051;-74
2022/01/27 04:38:46;;;;;;;82.60;37.37;;;;;;;-5.33;100.00;101157.32;1781363;80;21070;-74
2022/01/27 04:41:17;;;;;;;87.33;38.23;;;;;;;-5.35;100.00;101164.33;1710651;83;21119;-74
2022/01/27 04:43:47;;;;;;;89.47;40.43;;;;;;;-5.36;100.00;101166.41;1701406;83;21091;-74
2022/01/27 04:46:21;;;;;;;83.47;38.00;;;;;;;-5.38;100.00;101165.50;1737077;82;21019;-73
2022/01/27 04:48:49;;;;;;;105.17;42.87;;;;;;;-5.36;100.00;101170.16;1729589;82;21016;-75
2022/01/27 04:51:15;;;;;;;94.97;42.03;;;;;;;-5.38;100.00;101171.37;1695689;83;21556;-74
2022/01/27 04:53:48;;;;;;;84.03;39.53;;;;;;;-5.42;100.00;101174.98;1727550;80;21574;-74
2022/01/27 04:56:13;;;;;;;73.93;33.53;;;;;;;-5.43;100.00;101171.64;1716199;82;21039;-75
2022/01/27 04:58:45;;;;;;;86.63;36.20;;;;;;;-5.53;100.00;101174.66;1724238;82;21051;-74
2022/01/27 05:01:11;;;;;;;89.33;38.13;;;;;;;-5.46;100.00;101178.64;1700875;83;21017;-73
2022/01/27 05:03:45;;;;;;;83.30;36.20;;;;;;;-5.45;100.00;101179.11;1698249;82;21031;-74
2022/01/27 05:06:08;;;;;;;87.27;37.60;;;;;;;-5.45;100.00;101178.27;1775981;79;21055;-75
2022/01/27 05:08:35;;;;;;;84.67;35.50;;;;;;;-5.41;100.00;101184.20;1782643;79;21051;-75
2022/01/27 05:11:12;;;;;;;95.53;39.53;;;;;;;-5.41;100.00;101185.09;1784539;79;21139;-74
2022/01/27 05:13:38;;;;;;;100.73;40.27;;;;;;;-5.39;100.00;101185.98;1771279;79;21036;-74
2022/01/27 05:16:00;;;;;;;94.10;38.53;;;;;;;-5.38;100.00;101195.20;1764476;80;21044;-75
2022/01/27 05:18:28;;;;;;;97.83;39.87;;;;;;;-5.41;100.00;101196.75;1776641;79;21024;-74
2022/01/27 05:20:55;;;;;;;100.90;39.97;;;;;;;-5.39;100.00;101197.66;1775884;80;20996;-74
2022/01/27 05:23:22;;;;;;;115.97;46.93;;;;;;;-5.34;100.00;101202.44;1776214;79;21007;-75
2022/01/27 05:25:49;;;;;;;108.27;44.63;;;;;;;-5.40;100.00;101210.61;1759508;80;20993;-75
2022/01/27 05:28:16;;;;;;;104.50;44.13;;;;;;;-5.42;100.00;101210.96;1755566;80;20991;-75
2022/01/27 05:30:43;;;;;;;104.57;43.40;;;;;;;-5.41;100.00;101210.55;1766436;80;21012;-74
2022/01/27 05:33:10;;;;;;;108.30;43.53;;;;;;;-5.39;100.00;101208.94;1769134;79;21515;-75
2022/01/27 05:35:37;;;;;;;97.17;41.80;;;;;;;-5.35;100.00;101211.62;1785082;79;21574;-75
2022/01/27 05:38:06;;;;;;;107.13;42.63;;;;;;;-5.28;100.00;101218.53;1769928;79;21036;-75
2022/01/27 05:40:33;;;;;;;101.23;42.57;;;;;;;-5.24;100.00;101216.97;1776762;79;21546;-74
2022/01/27 05:43:00;;;;;;;105.07;44.80;;;;;;;-5.24;100.00;101220.33;1770066;80;21610;-75
2022/01/27 05:45:28;;;;;;;115.97;47.43;;;;;;;-5.09;100.00;101220.36;1775931;79;21574;-75
2022/01/27 05:47:55;;;;;;;115.20;46.30;;;;;;;-4.99;100.00;101216.48;1765071;80;21012;-75
2022/01/27 05:50:22;;;;;;;109.83;45.03;;;;;;;-4.98;100.00;101212.77;1759938;80;21044;-75
2022/01/27 05:52:49;;;;;;;114.50;45.77;;;;;;;-4.86;100.00;101215.65;1780826;79;21138;-75
2022/01/27 05:55:17;;;;;;;111.07;45.03;;;;;;;-4.75;100.00;101222.23;1755099;80;21597;-75
2022/01/27 05:57:44;;;;;;;105.40;43.80;;;;;;;-4.65;100.00;101223.37;1759838;80;20991;-75
2022/01/27 06:00:11;;;;;;;108.57;44.47;;;;;;;-4.61;100.00;101220.14;1768329;80;21015;-75
2022/01/27 06:02:42;;;;;;;104.33;46.23;;;;;;;-4.56;100.00;101219.88;1774392;80;21039;-75
2022/01/27 06:05:10;;;;;;;112.70;45.97;;;;;;;-4.57;100.00;101221.94;1763090;80;21016;-75
2022/01/27 06:07:38;;;;;;;115.50;48.10;;;;;;;-4.58;100.00;101216.86;1775373;79;21360;-76
2022/01/27 06:10:06;;;;;;;112.07;46.10;;;;;;;-4.65;100.00;101216.68;1777662;80;21007;-76
2022/01/27 06:12:33;;;;;;;108.00;46.80;;;;;;;-4.69;100.00;101214.89;1777475;80;21028;-75
2022/01/27 06:15:02;;;;;;;100.70;44.17;;;;;;;-4.64;100.00;101217.14;1761717;80;21084;-75
2022/01/27 06:17:29;;;;;;;99.47;41.57;;;;;;;-4.59;100.00;101206.37;1770689;79;21005;-75
2022/01/27 06:19:58;;;;;;;95.63;41.17;;;;;;;-4.53;100.00;101206.14;1782761;80;21031;-75
2022/01/27 06:22:24;;;;;;;90.40;39.53;;;;;;;-4.43;100.00;101210.62;1766513;80;21043;-75
2022/01/27 06:24:51;;;;;;;91.07;39.90;;;;;;;-4.43;100.00;101213.55;1773621;79;21635;-76
2022/01/27 06:27:19;;;;;;;97.83;42.07;;;;;;;-4.35;100.00;101212.09;1764028;79;21029;-75
2022/01/27 06:29:45;;;;;;;94.13;41.27;;;;;;;-4.28;100.00;101220.66;1772161;79;21043;-76
2022/01/27 06:32:12;;;;;;;86.23;38.97;;;;;;;-4.21;100.00;101219.19;1769299;80;21464;-76
2022/01/27 06:34:40;;;;;;;94.57;44.30;;;;;;;-4.19;100.00;101208.77;1781499;79;21016;-76
2022/01/27 06:37:07;;;;;;;192.67;73.30;;;;;;;-3.99;100.00;101207.63;1780910;79;21067;-75
2022/01/27 06:39:34;;;;;;;194.33;77.20;;;;;;;-3.88;100.00;101216.30;1785389;79;21038;-75
2022/01/27 06:42:01;;;;;;;149.53;59.97;;;;;;;-3.76;100.00;101216.19;1770944;80;21021;-75
2022/01/27 06:44:28;;;;;;;148.10;58.97;;;;;;;-3.78;100.00;101214.88;1772011;79;21048;-75
2022/01/27 06:46:55;;;;;;;115.63;50.87;;;;;;;-3.69;100.00;101215.12;1783678;79;21489;-75
2022/01/27 06:49:22;;;;;;;122.10;51.03;;;;;;;-3.66;100.00;101221.89;1769561;79;21005;-76
2022/01/27 06:51:49;;;;;;;99.00;43.87;;;;;;;-3.66;100.00;101221.48;1775184;79;21021;-75
2022/01/27 06:54:17;;;;;;;100.53;42.87;;;;;;;-3.54;100.00;101225.98;1769446;80;21012;-75
2022/01/27 06:56:45;;;;;;;96.43;41.87;;;;;;;-3.50;100.00;101235.30;1783735;80;21000;-75
2022/01/27 06:59:13;;;;;;;98.50;42.77;;;;;;;-3.52;100.00;101236.09;1760240;79;21020;-75
2022/01/27 07:01:40;;;;;;;99.70;43.37;;;;;;;-3.33;100.00;101228.58;1780046;79;21015;-75
2022/01/27 07:04:07;;;;;;;90.17;41.07;;;;;;;-3.23;100.00;101227.98;1784571;80;21039;-76
2022/01/27 07:06:35;;;;;;;91.90;39.13;;;;;;;-3.19;100.00;101233.95;1779815;79;21029;-75
2022/01/27 07:09:03;;;;;;;81.90;37.73;;;;;;;-3.07;100.00;101226.27;1781018;80;21143;-75
2022/01/27 07:11:32;;;;;;;85.50;36.93;;;;;;;-2.92;100.00;101222.00;1765972;80;21528;-74
2022/01/27 07:13:58;;;;;;;84.97;37.03;;;;;;;-2.76;100.00;101220.66;1757442;79;21051;-74
2022/01/27 07:16:27;;;;;;;83.30;37.60;;;;;;;-2.64;100.00;101218.39;1782743;80;21063;-75
2022/01/27 07:18:55;;;;;;;83.37;37.47;;;;;;;-2.51;100.00;101216.16;1764840;79;21061;-75
2022/01/27 07:21:22;;;;;;;78.90;37.60;;;;;;;-2.45;100.00;101221.33;1764163;80;21047;-75
2022/01/27 07:23:49;;;;;;;86.57;37.87;;;;;;;-2.28;100.00;101222.92;1760614;79;21063;-75
2022/01/27 07:26:16;;;;;;;86.20;39.70;;;;;;;-2.18;100.00;101227.74;1767231;80;20975;-75
2022/01/27 07:28:43;;;;;;;83.30;38.00;;;;;;;-2.17;100.00;101223.13;1763852;80;21071;-75
2022/01/27 07:31:10;;;;;;;81.37;40.23;;;;;;;-2.27;100.00;101220.83;1778671;79;21134;-74
2022/01/27 07:33:37;;;;;;;87.20;39.90;;;;;;;-2.16;100.00;101221.90;1778435;79;21622;-75
2022/01/27 07:36:05;;;;;;;82.67;38.63;;;;;;;-2.12;100.00;101221.55;1757733;80;21607;-75
2022/01/27 07:38:32;;;;;;;79.03;37.70;;;;;;;-2.09;100.00;101225.38;1760947;80;21016;-75
2022/01/27 07:40:59;;;;;;;77.00;35.83;;;;;;;-2.07;100.00;101219.95;1766436;80;21075;-75
2022/01/27 07:43:26;;;;;;;78.07;36.30;;;;;;;-1.95;100.00;101218.08;1771522;80;21078;-75
2022/01/27 07:45:53;;;;;;;77.73;35.23;;;;;;;-1.89;100.00;101216.93;1785473;79;20988;-75
2022/01/27 07:48:20;;;;;;;80.33;36.60;;;;;;;-1.96;100.00;101221.44;1764091;80;20990;-75
2022/01/27 07:50:47;;;;;;;82.10;37.50;;;;;;;-2.02;100.00;101227.22;1776677;79;21075;-75
2022/01/27 07:53:14;;;;;;;81.13;37.30;;;;;;;-2.13;100.00;101225.76;1772591;79;21068;-75
2022/01/27 07:55:41;;;;;;;77.37;36.13;;;;;;;-2.02;100.00;101231.00;1773338;80;21005;-76
2022/01/27 07:58:08;;;;;;;81.93;37.33;;;;;;;-1.96;100.00;101236.58;1758896;80;21028;-75
2022/01/27 08:00:36;;;;;;;76.50;36.00;;;;;;;-1.93;100.00;101239.14;1771718;80;21020;-75
2022/01/27 08:03:03;;;;;;;78.20;35.10;;;;;;;-1.87;100.00;101241.36;1786690;80;20980;-75
2022/01/27 08:05:31;;;;;;;75.13;34.83;;;;;;;-1.76;100.00;101244.11;1778156;79;21075;-75
2022/01/27 08:07:58;;;;;;;74.50;34.27;;;;;;;-1.54;100.00;101244.08;1784583;79;21035;-76
2022/01/27 08:10:26;;;;;;;71.13;32.93;;;;;;;-1.49;100.00;101250.47;1785575;79;22624;-75
2022/01/27 08:12:53;;;;;;;74.77;34.80;;;;;;;-1.51;100.00;101247.06;1784279;79;21031;-75
2022/01/27 08:15:22;;;;;;;75.27;35.07;;;;;;;-1.43;100.00;101251.83;1752884;80;21004;-75
2022/01/27 08:17:49;;;;;;;72.87;34.17;;;;;;;-1.41;100.00;101251.02;1779525;79;21063;-76
2022/01/27 08:20:16;;;;;;;76.67;35.48;;;;;;;-1.33;100.00;101252.84;1754514;80;21015;-76
2022/01/27 08:22:44;;;;;;;72.00;33.42;;;;;;;-1.15;100.00;101248.09;1768717;79;21510;-77
2022/01/27 08:25:11;;;;;;;77.37;34.50;;;;;;;-1.06;100.00;101243.16;1769734;79;21495;-77
2022/01/27 08:27:41;;;;;;;75.57;36.53;;;;;;;-0.96;100.00;101244.58;1764918;79;21512;-77
2022/01/27 08:30:09;;;;;;;77.75;36.80;;;;;;;-0.62;100.00;101239.59;1764604;79;21039;-77
2022/01/27 08:32:47;;;;;;;70.67;34.25;;;;;;;-0.59;100.00;101242.14;1755826;79;21067;-77
2022/01/27 08:35:10;;;;;;;70.50;33.98;;;;;;;-0.50;100.00;101233.85;1746621;80;20979;-77
2022/01/27 08:37:38;;;;;;;74.37;35.60;;;;;;;-0.51;100.00;101236.77;1754240;80;21078;-77
2022/01/27 08:40:07;;;;;;;73.07;34.92;;;;;;;-0.32;100.00;101239.14;1765026;79;21011;-77
2022/01/27 08:42:34;;;;;;;71.02;34.92;;;;;;;-0.22;100.00;101240.95;1749794;80;21111;-77
2022/01/27 08:45:02;;;;;;;69.85;34.30;;;;;;;-0.18;100.00;101243.50;1750443;80;21071;-77
2022/01/27 08:47:30;;;;;;;67.67;32.88;;;;;;;-0.35;100.00;101236.98;1751761;81;21035;-76
2022/01/27 08:49:58;;;;;;;70.90;32.98;;;;;;;-0.31;100.00;101238.30;1757489;81;21122;-76
2022/01/27 08:52:25;;;;;;;69.85;33.85;;;;;;;-0.15;100.00;101237.22;1755979;81;21007;-76
2022/01/27 08:54:52;;;;;;;67.32;33.08;;;;;;;-0.07;100.00;101229.30;1758749;81;20988;-76
2022/01/27 08:57:19;;;;;;;64.97;31.90;;;;;;;-0.05;100.00;101237.77;1751027;81;21005;-76
2022/01/27 08:59:47;;;;;;;62.45;30.62;;;;;;;-0.10;100.00;101229.25;1690240;83;21070;-76
2022/01/27 09:02:14;;;;;;;66.17;32.40;;;;;;;-0.05;100.00;101237.77;1678708;84;21133;-76
2022/01/27 09:04:41;;;;;;;65.78;31.57;;;;;;;-0.23;100.00;101238.39;1749540;80;21068;-76
2022/01/27 09:07:08;;;;;;;66.90;32.50;;;;;;;-0.19;100.00;101235.06;1757174;81;21074;-76
2022/01/27 09:09:35;;;;;;;67.25;32.48;;;;;;;-0.08;100.00;101227.59;1758820;80;21020;-76
2022/01/27 09:12:39;;;;;;;69.58;32.38;;;;;;;-0.04;100.00;101226.79;1751148;80;21055;-76
2022/01/27 09:15:09;;;;;;;69.27;32.67;;;;;;;0.07;100.00;101220.17;1754184;80;21051;-77
2022/01/27 09:17:41;;;;;;;70.92;32.03;;;;;;;0.09;100.00;101217.24;1757045;81;21074;-76
2022/01/27 09:20:10;;;;;;;74.85;31.93;;;;;;;0.09;100.00;101213.45;1756569;81;21031;-77
2022/01/27 09:22:38;;;;;;;64.58;31.85;;;;;;;0.06;100.00;101222.69;1753682;80;21051;-76
2022/01/27 09:25:13;;;;;;;66.22;30.80;;;;;;;0.13;100.00;101225.73;1754798;81;21481;-77
2022/01/27 09:27:37;;;;;;;59.45;29.25;;;;;;;-0.04;100.00;101221.34;1756738;80;21043;-76
2022/01/27 09:30:06;;;;;;;59.13;28.65;;;;;;;0.08;100.00;101222.28;1752355;80;21020;-76
2022/01/27 09:32:33;;;;;;;70.10;32.95;;;;;;;0.17;100.00;101219.86;1745273;82;21005;-76
2022/01/27 09:35:00;;;;;;;56.37;29.50;;;;;;;0.17;100.00;101220.70;1750902;80;21452;-76
2022/01/27 09:37:27;;;;;;;62.70;30.97;;;;;;;0.16;100.00;101213.08;1752924;80;21558;-77
2022/01/27 09:39:54;;;;;;;60.15;29.98;;;;;;;0.14;100.00;101210.56;1755395;80;21150;-76
2022/01/27 09:42:23;;;;;;;63.10;30.10;;;;;;;0.22;100.00;101205.97;1757312;80;21019;-77
2022/01/27 09:44:53;;;;;;;61.70;29.02;;;;;;;0.18;100.00;101202.16;1756288;80;21508;-77
2022/01/27 09:47:25;;;;;;;63.33;28.20;;;;;;;-0.01;100.00;101203.63;1756347;80;21035;-77
2022/01/27 09:49:55;;;;;;;63.28;30.00;;;;;;;0.05;100.00;101199.06;1719014;81;21536;-77
2022/01/27 09:52:21;;;;;;;68.60;32.25;;;;;;;0.17;100.00;101199.61;1744417;80;21032;-78
2022/01/27 09:54:49;;;;;;;71.67;34.53;;;;;;;0.20;100.00;101199.62;1754014;80;21068;-77
2022/01/27 09:57:19;;;;;;;74.35;35.48;;;;;;;0.28;100.00;101197.17;1757031;80;21535;-77
2022/01/27 09:59:47;;;;;;;82.62;37.42;;;;;;;0.39;100.00;101198.12;1742574;81;21016;-77
2022/01/27 10:02:21;;;;;;;92.27;40.83;;;;;;;0.40;100.00;101201.91;1752064;80;21376;-77
2022/01/27 10:04:52;;;;;;;82.97;37.85;;;;;;;0.47;100.00;101200.73;1752102;80;20992;-77
2022/01/27 10:07:28;;;;;;;84.62;39.10;;;;;;;0.68;100.00;101197.52;1753868;81;21063;-77
2022/01/27 10:10:10;;;;;;;83.07;37.28;;;;;;;0.61;100.00;101195.36;1721012;82;21051;-77
2022/01/27 10:12:45;;;;;;;90.40;39.73;;;;;;;0.65;100.00;101198.73;1755403;80;21051;-78
2022/01/27 10:15:17;;;;;;;99.58;41.55;;;;;;;0.78;100.00;101196.74;1750579;80;21053;-78
2022/01/27 10:18:11;;;;;;;96.87;41.98;;;;;;;0.91;100.00;101195.13;1757027;80;21098;-78
2022/01/27 10:21:01;;;;;;;87.88;38.05;;;;;;;1.00;100.00;101202.81;1728592;80;21054;-77
2022/01/27 10:23:33;;;;;;;92.30;39.42;;;;;;;1.02;100.00;101199.03;1752032;80;21864;-77
2022/01/27 10:26:22;;;;;;;92.88;41.70;;;;;;;1.00;100.00;101198.58;1757865;81;21027;-77
2022/01/27 10:29:05;;;;;;;88.47;38.60;;;;;;;0.88;100.00;101195.97;1719797;82;21089;-77
2022/01/27 10:31:28;;;;;;;94.55;40.50;;;;;;;0.86;100.00;101196.37;1663309;85;21053;-77
2022/01/27 10:34:05;;;;;;;93.20;39.40;;;;;;;0.84;100.00;101196.78;1692538;82;21046;-77
2022/01/27 10:36:39;;;;;;;85.92;36.88;;;;;;;0.94;100.00;101188.41;1685987;83;21173;-77
2022/01/27 10:39:09;;;;;;;71.00;32.83;;;;;;;0.95;100.00;101192.65;1698210;83;21075;-77
2022/01/27 10:41:55;;;;;;;79.40;34.00;;;;;;;1.11;100.00;101182.58;1701142;83;21218;-77
2022/01/27 10:44:26;;;;;;;84.37;35.58;;;;;;;1.11;100.00;101190.19;1675355;85;21497;-77
2022/01/27 10:47:16;;;;;;;63.28;28.05;;;;;;;1.13;100.00;101192.31;1720679;82;21023;-77
2022/01/27 10:49:49;;;;;;;87.75;36.10;;;;;;;1.07;100.00;101183.41;1718760;82;21512;-77
2022/01/27 10:52:14;;;;;;;96.20;41.28;;;;;;;0.94;100.00;101185.03;1721916;82;21531;-78
2022/01/27 10:54:49;;;;;;;98.58;39.45;;;;;;;0.90;100.00;101179.08;1721938;82;21034;-78
2022/01/27 10:57:13;;;;;;;79.77;34.88;;;;;;;1.02;100.00;101175.78;1717702;82;21167;-78
2022/01/27 10:59:43;;;;;;;85.20;37.45;;;;;;;1.14;100.00;101177.55;1723076;82;21536;-77
2022/01/27 11:02:12;;;;;;;86.28;35.75;;;;;;;1.13;100.00;101180.48;1687929;83;21045;-77
2022/01/27 11:04:42;;;;;;;74.87;33.05;;;;;;;1.20;100.00;101184.75;1761830;80;21019;-77
2022/01/27 11:07:16;;;;;;;85.87;35.95;;;;;;;1.42;100.00;101176.39;1751611;80;21028;-78
2022/01/27 11:09:44;;;;;;;67.82;28.60;;;;;;;1.52;100.00;101167.97;1747517;80;21024;-79
2022/01/27 11:12:17;;;;;;;55.58;23.73;;;;;;;1.74;100.00;101167.20;1753245;81;21040;-78
2022/01/27 11:14:49;;;;;;;32.80;14.23;;;;;;;1.85;98.21;101166.41;1720160;82;21084;-78
2022/01/27 11:17:22;;;;;;;22.67;9.50;;;;;;;1.72;94.65;101173.13;1708158;82;21637;-77
2022/01/27 11:25:49;;;;;;;26.07;11.25;;;;;;;1.16;92.25;101173.33;1676836;83;21121;-77
2022/01/27 11:27:26;;;;;;;25.90;11.38;;;;;;;0.86;90.87;101174.83;1709696;83;21112;-76
2022/01/27 11:30:24;;;;;;;25.88;10.43;;;;;;;0.48;91.47;101174.12;1715358;82;21524;-77
2022/01/27 11:33:15;;;;;;;22.60;9.83;;;;;;;0.31;92.64;101175.69;1691690;85;21056;-77
2022/01/27 11:35:43;;;;;;;20.12;9.58;;;;;;;0.14;92.82;101171.31;1654572;87;21072;-77
2022/01/27 11:38:12;;;;;;;21.33;9.75;;;;;;;0.05;93.52;101167.42;1655153;87;21020;-79
2022/01/27 11:40:45;;;;;;;26.85;11.05;;;;;;;-0.03;93.50;101161.01;1655092;87;21024;-78
2022/01/27 11:43:18;;;;;;;22.77;9.68;;;;;;;0.02;94.79;101156.02;1660085;86;21113;-78
2022/01/27 11:45:56;;;;;;;18.42;8.45;;;;;;;0.04;94.61;101163.60;1661399;86;21545;-78
2022/01/27 11:48:25;;;;;;;20.52;8.95;;;;;;;0.05;94.00;101157.72;1660610;84;21058;-79
2022/01/27 11:51:01;;;;;;;20.32;9.43;;;;;;;0.03;94.16;101161.49;1661339;86;21026;-79